Time;durP1;ratioP1;P1;durP2;ratioP2;P2;SDS_P1;SDS_P2;PMS_P1;PMS_P2;Temp;Humidity;BMP_temperature;BMP_pressure;BME280_temperature;BME280_humidity;BME280_pressure;Samples;Min_cycle;Max_cycle;Signal;HPM_P1;HPM_P2
2024/01/29 00:02:17;;;;;;;0.50;0.10;;;;;;;;;;5095320;28;20883;-75
2024/01/29 00:04:46;;;;;;;0.50;0.10;;;5.40;6.10;;;;;;5095447;28;20454;-74
2024/01/29 00:07:14;;;;;;;0.50;0.10;;;5.40;6.50;;;;;;5089718;28;20490;-74
2024/01/29 00:09:44;;;;;;;0.50;0.10;;;5.40;6.50;;;;;;5074725;28;20481;-74
2024/01/29 00:12:13;;;;;;;0.50;0.10;;;5.40;6.50;;;;;;5074711;28;20448;-75
2024/01/29 00:14:41;;;;;;;0.50;0.10;;;5.30;6.40;;;;;;5074659;28;20445;-74
2024/01/29 00:17:09;;;;;;;0.50;0.10;;;5.30;6.70;;;;;;5074577;28;20469;-74
2024/01/29 00:19:37;;;;;;;0.50;0.10;;;5.30;7.20;;;;;;5075002;28;20806;-75
2024/01/29 00:22:06;;;;;;;0.50;0.10;;;5.30;7.20;;;;;;5074319;28;20451;-75
2024/01/29 00:24:34;;;;;;;0.50;0.10;;;5.30;7.50;;;;;;5073662;28;20849;-75
2024/01/29 00:27:02;;;;;;;0.50;0.10;;;5.30;8.20;;;;;;5074671;28;20850;-75
2024/01/29 00:29:30;;;;;;;0.50;0.10;;;5.30;8.10;;;;;;5074059;28;20499;-74
2024/01/29 00:31:58;;;;;;;0.50;0.10;;;5.30;8.10;;;;;;5073969;28;20488;-73
2024/01/29 00:34:26;;;;;;;0.50;0.10;;;5.30;8.20;;;;;;5074471;28;20525;-75
2024/01/29 00:36:54;;;;;;;0.50;0.10;;;5.30;9.20;;;;;;5074645;28;20465;-74
2024/01/29 00:39:23;;;;;;;0.50;0.10;;;5.40;10.50;;;;;;5074379;28;20464;-74
2024/01/29 00:41:51;;;;;;;0.50;0.10;;;5.50;11.30;;;;;;5075423;28;20453;-75
2024/01/29 00:44:19;;;;;;;0.50;0.10;;;5.50;11.30;;;;;;5075337;28;20437;-76
2024/01/29 00:46:47;;;;;;;0.50;0.10;;;5.60;12.80;;;;;;5074682;28;20511;-74
2024/01/29 00:49:15;;;;;;;0.50;0.10;;;5.70;12.90;;;;;;5074185;28;21028;-75
2024/01/29 00:51:43;;;;;;;0.50;0.10;;;5.70;13.40;;;;;;5074396;28;20448;-75
2024/01/29 00:54:11;;;;;;;0.50;0.17;;;5.70;13.90;;;;;;5074680;28;20438;-74
2024/01/29 00:56:40;;;;;;;0.50;0.10;;;5.80;13.60;;;;;;5074236;28;20480;-73
2024/01/29 00:59:08;;;;;;;0.50;0.30;;;5.80;12.20;;;;;;5072319;28;20716;-75
2024/01/29 01:01:36;;;;;;;0.50;0.10;;;5.70;11.60;;;;;;5075193;28;20448;-75
2024/01/29 01:04:04;;;;;;;0.50;0.10;;;5.70;11.70;;;;;;5074600;28;20468;-74
2024/01/29 01:06:32;;;;;;;0.50;0.10;;;5.70;11.50;;;;;;5075292;28;20498;-74
2024/01/29 01:09:00;;;;;;;0.50;0.10;;;5.70;11.50;;;;;;5074778;28;20476;-76
2024/01/29 01:11:28;;;;;;;0.50;0.10;;;5.70;11.10;;;;;;5075314;28;20481;-74
2024/01/29 01:13:57;;;;;;;0.50;0.10;;;5.70;9.30;;;;;;5075092;28;20446;-75
2024/01/29 01:16:25;;;;;;;0.50;0.10;;;5.50;7.20;;;;;;5076083;28;20454;-75
2024/01/29 01:18:53;;;;;;;0.50;0.10;;;5.40;5.90;;;;;;5076521;28;20976;-73
2024/01/29 01:21:21;;;;;;;0.50;0.10;;;5.30;6.50;;;;;;5084386;28;20530;-73
2024/01/29 01:23:49;;;;;;;0.50;0.10;;;5.30;6.90;;;;;;5080317;28;20450;-72
2024/01/29 01:26:17;;;;;;;0.50;0.10;;;5.40;7.60;;;;;;5079849;28;20896;-74
2024/01/29 01:28:45;;;;;;;0.50;0.10;;;5.40;7.80;;;;;;5084163;28;20833;-74
2024/01/29 01:31:15;;;;;;;0.50;0.10;;;5.40;8.20;;;;;;5096525;28;20476;-74
2024/01/29 01:33:43;;;;;;;0.50;0.10;;;5.20;8.30;;;;;;5095570;28;20446;-74
2024/01/29 01:36:11;;;;;;;0.50;0.10;;;5.50;8.10;;;;;;5089525;28;20524;-75
2024/01/29 01:38:39;;;;;;;0.50;0.10;;;5.50;7.70;;;;;;5096335;28;20502;-74
2024/01/29 01:41:07;;;;;;;0.50;0.10;;;5.50;7.20;;;;;;5097369;28;20468;-75
2024/01/29 01:43:34;;;;;;;0.50;0.10;;;5.50;8.00;;;;;;5097827;28;20445;-74
2024/01/29 01:46:19;;;;;;;0.50;0.10;;;5.60;8.10;;;;;;5092913;28;20541;-74
2024/01/29 01:48:48;;;;;;;0.50;0.10;;;5.60;7.70;;;;;;5092876;28;20437;-74
2024/01/29 01:51:16;;;;;;;0.50;0.10;;;5.50;6.70;;;;;;5096523;28;20479;-74
2024/01/29 01:53:45;;;;;;;0.50;0.10;;;5.40;6.60;;;;;;5086706;28;20482;-74
2024/01/29 01:56:15;;;;;;;0.50;0.10;;;5.30;6.40;;;;;;5092691;28;20506;-74
2024/01/29 01:58:43;;;;;;;0.50;0.10;;;5.40;7.40;;;;;;5092777;28;20517;-74
2024/01/29 02:01:13;;;;;;;0.50;0.10;;;5.30;6.50;;;;;;5094428;28;20444;-75
2024/01/29 02:03:43;;;;;;;0.50;0.10;;;2.60;5.00;;;;;;5084560;28;20447;-74
2024/01/29 02:06:11;;;;;;;0.60;0.30;;;5.10;6.80;;;;;;5080774;28;20441;-75
2024/01/29 02:08:40;;;;;;;0.50;0.10;;;5.10;6.60;;;;;;5080965;28;20437;-74
2024/01/29 02:11:08;;;;;;;0.50;0.10;;;5.10;7.20;;;;;;5080761;28;20604;-75
2024/01/29 02:13:36;;;;;;;0.50;0.10;;;5.10;8.10;;;;;;5078488;28;20528;-74
2024/01/29 02:16:05;;;;;;;0.50;0.10;;;;;;;;;;5083386;28;20480;-75
2024/01/29 02:18:34;;;;;;;0.50;0.10;;;5.10;8.10;;;;;;5080845;28;20865;-75
2024/01/29 02:21:03;;;;;;;0.50;0.10;;;5.10;8.40;;;;;;5083138;28;20445;-75
2024/01/29 02:23:33;;;;;;;0.50;0.10;;;5.10;8.30;;;;;;5084024;28;21079;-76
2024/01/29 02:26:00;;;;;;;0.50;0.10;;;5.20;8.90;;;;;;5081591;28;20536;-75
2024/01/29 02:28:28;;;;;;;0.50;0.10;;;5.10;8.10;;;;;;5080161;28;20493;-75
2024/01/29 02:30:56;;;;;;;0.50;0.10;;;5.10;8.50;;;;;;5082121;28;20880;-74
2024/01/29 02:33:24;;;;;;;0.50;0.10;;;5.10;8.30;;;;;;5084269;28;20445;-76
2024/01/29 02:35:52;;;;;;;0.50;0.10;;;5.10;8.00;;;;;;5080180;28;20465;-74
2024/01/29 02:38:20;;;;;;;0.50;0.10;;;5.10;8.80;;;;;;5080054;28;20470;-73
2024/01/29 02:40:49;;;;;;;0.50;0.10;;;5.10;8.70;;;;;;5080389;28;20495;-76
2024/01/29 02:43:17;;;;;;;0.50;0.10;;;5.00;8.10;;;;;;5083692;28;20955;-74
2024/01/29 02:45:47;;;;;;;0.50;0.10;;;5.00;8.60;;;;;;5083993;28;20884;-75
2024/01/29 02:48:15;;;;;;;0.50;0.10;;;5.00;8.60;;;;;;5081368;28;20496;-75
2024/01/29 02:50:43;;;;;;;0.50;0.10;;;5.00;8.60;;;;;;5080217;28;20476;-75
2024/01/29 02:53:11;;;;;;;0.50;0.10;;;5.00;9.00;;;;;;5071235;28;20446;-74
2024/01/29 02:58:14;;;;;;;0.50;0.10;;;4.90;8.50;;;;;;5028530;28;20513;-75
2024/01/29 03:00:42;;;;;;;0.50;0.10;;;4.70;8.10;;;;;;5030891;28;20447;-75
2024/01/29 03:03:11;;;;;;;0.50;0.10;;;4.30;16.10;;;;;;5031311;28;20447;-75
2024/01/29 03:05:38;;;;;;;0.50;0.10;;;4.80;9.70;;;;;;5031624;28;20447;-75
2024/01/29 03:08:07;;;;;;;0.50;0.10;;;4.90;10.00;;;;;;5031077;28;20467;-76
2024/01/29 03:10:35;;;;;;;0.50;0.10;;;4.90;18.10;;;;;;5030896;28;20538;-75
2024/01/29 03:13:03;;;;;;;0.50;0.10;;;5.00;10.60;;;;;;5039432;28;20506;-76
2024/01/29 03:15:32;;;;;;;0.50;0.10;;;5.00;9.50;;;;;;5042640;28;20478;-77
2024/01/29 03:18:00;;;;;;;0.50;0.10;;;4.90;8.60;;;;;;5037902;28;20467;-76
2024/01/29 03:20:28;;;;;;;0.50;0.13;;;4.80;9.00;;;;;;5037146;28;20446;-75
2024/01/29 03:22:56;;;;;;;0.50;0.10;;;6.60;18.60;;;;;;5034554;28;20538;-76
2024/01/29 03:25:24;;;;;;;0.50;0.10;;;4.80;17.00;;;;;;5028451;28;20542;-75
2024/01/29 03:27:52;;;;;;;0.50;0.10;;;4.80;9.50;;;;;;5029065;28;20525;-76
2024/01/29 03:30:19;;;;;;;0.50;0.10;;;4.80;17.90;;;;;;5030795;28;20538;-77
2024/01/29 03:32:49;;;;;;;0.80;0.43;;;4.90;18.20;;;;;;5030607;28;20494;-77
2024/01/29 03:35:18;;;;;;;0.50;0.10;;;4.80;17.30;;;;;;5031310;28;20479;-76
2024/01/29 03:37:46;;;;;;;0.50;0.13;;;4.80;11.20;;;;;;5031299;28;20471;-76
2024/01/29 03:40:14;;;;;;;0.50;0.10;;;4.80;10.30;;;;;;5023242;28;20812;-75
2024/01/29 03:42:42;;;;;;;0.50;0.10;;;4.80;10.40;;;;;;5029235;28;20965;-76
2024/01/29 03:45:10;;;;;;;0.50;0.10;;;4.70;9.70;;;;;;5030549;28;20451;-75
2024/01/29 03:47:38;;;;;;;0.50;0.10;;;4.70;10.00;;;;;;5030859;28;20473;-77
2024/01/29 03:50:08;;;;;;;0.50;0.10;;;4.50;18.20;;;;;;5030720;28;20535;-77
2024/01/29 03:52:36;;;;;;;0.50;0.10;;;4.50;18.90;;;;;;5030976;28;20467;-77
2024/01/29 03:55:05;;;;;;;0.50;0.10;;;4.60;19.30;;;;;;5030643;28;20447;-75
2024/01/29 03:57:33;;;;;;;0.50;0.10;;;4.60;11.90;;;;;;5048873;28;20509;-75
2024/01/29 04:00:02;;;;;;;0.50;0.10;;;4.50;12.00;;;;;;5053688;28;20454;-75
2024/01/29 04:02:31;;;;;;;0.50;0.10;;;4.50;12.80;;;;;;5054409;28;20458;-75
2024/01/29 04:04:59;;;;;;;0.50;0.10;;;4.60;13.60;;;;;;5054344;28;20473;-77
2024/01/29 04:07:28;;;;;;;0.50;0.10;;;4.60;13.40;;;;;;5054344;28;20863;-76
2024/01/29 04:09:56;;;;;;;0.50;0.10;;;4.60;21.40;;;;;;5054037;28;20462;-77
2024/01/29 04:12:24;;;;;;;0.50;0.10;;;4.60;21.10;;;;;;5053789;28;20529;-77
2024/01/29 04:14:52;;;;;;;0.50;0.10;;;4.50;13.80;;;;;;5053090;28;20520;-77
2024/01/29 04:17:20;;;;;;;0.50;0.10;;;4.60;14.60;;;;;;5053891;28;21065;-76
2024/01/29 04:19:48;;;;;;;0.50;0.10;;;4.50;13.90;;;;;;5053967;28;20542;-76
2024/01/29 04:22:16;;;;;;;0.50;0.10;;;4.50;14.00;;;;;;5054041;28;20493;-74
2024/01/29 04:24:45;;;;;;;0.50;0.10;;;4.50;13.40;;;;;;5057955;28;20442;-76
2024/01/29 04:27:13;;;;;;;0.50;0.10;;;4.40;13.70;;;;;;5059901;28;20526;-76
2024/01/29 04:29:41;;;;;;;0.50;0.10;;;4.40;21.60;;;;;;5054684;28;20541;-76
2024/01/29 04:32:09;;;;;;;0.50;0.10;;;4.30;22.00;;;;;;5054019;28;20651;-76
2024/01/29 04:34:37;;;;;;;0.50;0.10;;;4.30;23.00;;;;;;5054007;28;20452;-76
2024/01/29 04:37:05;;;;;;;0.50;0.10;;;4.20;15.90;;;;;;5054136;28;20462;-76
2024/01/29 04:39:34;;;;;;;0.50;0.10;;;4.20;16.20;;;;;;5054501;28;20894;-76
2024/01/29 04:42:03;;;;;;;0.50;0.10;;;4.30;17.40;;;;;;5053510;28;20449;-76
2024/01/29 04:44:31;;;;;;;0.50;0.10;;;4.30;17.60;;;;;;5052987;28;20481;-76
2024/01/29 04:46:59;;;;;;;0.50;0.10;;;4.30;18.00;;;;;;5054746;28;20616;-76
2024/01/29 04:49:27;;;;;;;0.50;0.10;;;4.40;25.60;;;;;;5055051;28;20508;-76
2024/01/29 04:51:55;;;;;;;0.50;0.10;;;4.40;25.40;;;;;;5053551;28;20493;-77
2024/01/29 04:54:23;;;;;;;0.50;0.10;;;4.40;25.70;;;;;;5054270;28;20454;-76
2024/01/29 04:56:51;;;;;;;0.50;0.10;;;4.50;18.20;;;;;;5053438;28;20480;-76
2024/01/29 04:59:20;;;;;;;0.50;0.20;;;4.50;26.00;;;;;;5045227;28;20938;-76
2024/01/29 05:01:48;;;;;;;0.50;0.10;;;4.40;17.30;;;;;;5051924;28;20482;-77
2024/01/29 05:04:16;;;;;;;0.50;0.10;;;4.50;17.00;;;;;;5052306;28;20476;-75
2024/01/29 05:06:44;;;;;;;0.50;0.10;;;4.50;17.60;;;;;;5051549;28;20469;-77
2024/01/29 05:09:13;;;;;;;0.50;0.10;;;4.40;17.60;;;;;;5052278;28;20437;-76
2024/01/29 05:11:41;;;;;;;0.50;0.10;;;4.50;17.10;;;;;;5053066;28;20466;-75
2024/01/29 05:14:09;;;;;;;0.50;0.10;;;4.50;16.90;;;;;;5052695;28;20519;-76
2024/01/29 05:16:38;;;;;;;0.50;0.10;;;4.50;17.00;;;;;;5051389;28;20489;-76
2024/01/29 05:19:06;;;;;;;0.97;0.77;;;4.50;25.10;;;;;;5051881;28;20935;-76
2024/01/29 05:21:34;;;;;;;0.50;0.10;;;4.50;24.10;;;;;;5052055;28;20442;-76
2024/01/29 05:24:02;;;;;;;0.50;0.10;;;4.40;24.30;;;;;;5051689;28;20598;-77
2024/01/29 05:26:29;;;;;;;0.50;0.10;;;4.50;17.40;;;;;;5051827;28;20904;-77
2024/01/29 05:28:57;;;;;;;0.50;0.10;;;4.50;17.90;;;;;;5051842;28;20511;-77
2024/01/29 05:31:25;;;;;;;0.50;0.10;;;4.50;25.80;;;;;;5048678;28;20464;-76
2024/01/29 05:33:54;;;;;;;0.50;0.10;;;4.50;17.80;;;;;;5048276;28;20524;-76
2024/01/29 05:36:23;;;;;;;0.50;0.10;;;4.50;17.90;;;;;;5055383;28;20548;-76
2024/01/29 05:38:51;;;;;;;0.50;0.10;;;4.50;17.70;;;;;;5072580;28;20542;-77
2024/01/29 05:41:19;;;;;;;0.50;0.10;;;4.50;25.90;;;;;;5060527;28;20443;-77
2024/01/29 05:43:46;;;;;;;0.50;0.10;;;4.50;17.70;;;;;;5052290;28;20457;-76
2024/01/29 05:46:14;;;;;;;0.50;0.10;;;4.60;18.20;;;;;;5057429;28;20477;-77
2024/01/29 05:48:42;;;;;;;0.50;0.10;;;4.60;26.10;;;;;;5046602;28;20446;-77
2024/01/29 05:51:12;;;;;;;0.50;0.10;;;4.50;25.00;;;;;;5051559;28;20513;-76
2024/01/29 05:53:39;;;;;;;0.50;0.10;;;4.60;17.80;;;;;;5051382;28;20545;-76
2024/01/29 05:56:08;;;;;;;0.50;0.10;;;4.50;18.20;;;;;;5054557;28;20603;-77
2024/01/29 05:58:36;;;;;;;0.50;0.10;;;4.50;17.70;;;;;;5051921;28;20458;-77
2024/01/29 06:01:04;;;;;;;0.50;0.10;;;4.50;25.70;;;;;;5051474;28;20457;-77
2024/01/29 06:03:32;;;;;;;0.50;0.10;;;4.50;25.60;;;;;;5053171;28;20893;-77
2024/01/29 06:06:00;;;;;;;0.50;0.10;;;4.50;18.80;;;;;;5052530;28;20470;-77
2024/01/29 06:08:30;;;;;;;0.50;0.10;;;4.50;26.70;;;;;;5052365;28;20804;-77
2024/01/29 06:10:58;;;;;;;0.50;0.10;;;;;;;;;;5052078;28;21115;-75
2024/01/29 06:13:27;;;;;;;0.50;0.10;;;4.50;18.40;;;;;;5054036;28;20573;-78
2024/01/29 06:15:55;;;;;;;0.50;0.10;;;;;;;;;;5050964;28;20539;-76
2024/01/29 06:18:24;;;;;;;0.50;0.10;;;4.50;19.60;;;;;;5043274;28;20570;-76
2024/01/29 06:20:52;;;;;;;0.50;0.10;;;4.40;18.10;;;;;;5051050;28;20913;-76
2024/01/29 06:23:20;;;;;;;0.50;0.10;;;4.40;18.30;;;;;;5044727;28;20482;-77
2024/01/29 06:25:49;;;;;;;0.50;0.10;;;4.40;18.80;;;;;;5051405;28;20950;-76
2024/01/29 06:28:17;;;;;;;0.50;0.10;;;4.50;27.00;;;;;;5037949;28;20557;-76
2024/01/29 06:30:45;;;;;;;0.50;0.10;;;4.40;26.30;;;;;;5042644;28;20454;-76
2024/01/29 06:33:13;;;;;;;0.50;0.10;;;4.40;27.00;;;;;;5050483;28;20851;-76
2024/01/29 06:35:41;;;;;;;0.50;0.10;;;4.50;20.00;;;;;;5050561;28;20539;-75
2024/01/29 06:38:09;;;;;;;0.50;0.10;;;4.50;28.20;;;;;;5049838;28;20438;-77
2024/01/29 06:40:37;;;;;;;0.50;0.10;;;4.50;27.90;;;;;;5050946;28;20450;-77
2024/01/29 06:43:07;;;;;;;0.50;0.10;;;4.40;27.30;;;;;;5052271;28;20439;-76
2024/01/29 06:45:35;;;;;;;0.50;0.10;;;4.40;20.20;;;;;;5052978;28;20957;-75
2024/01/29 06:48:06;;;;;;;0.60;0.10;;;4.40;20.20;;;;;;5050789;28;21080;-76
2024/01/29 06:50:35;;;;;;;0.50;0.10;;;4.40;20.80;;;;;;5051092;28;20457;-76
2024/01/29 06:53:03;;;;;;;0.50;0.10;;;4.30;22.80;;;;;;5050454;28;20486;-77
2024/01/29 06:55:31;;;;;;;0.57;0.23;;;4.30;25.20;;;;;;5051866;28;20442;-77
2024/01/29 06:58:00;;;;;;;0.50;0.10;;;4.30;25.50;;;;;;5051239;28;20558;-76
2024/01/29 07:00:30;;;;;;;0.50;0.10;;;4.30;26.90;;;;;;5051213;28;20446;-76
2024/01/29 07:02:58;;;;;;;0.50;0.10;;;4.30;36.30;;;;;;5050228;28;20454;-75
2024/01/29 07:05:26;;;;;;;0.50;0.10;;;4.30;35.50;;;;;;5052839;28;20469;-76
2024/01/29 07:07:54;;;;;;;0.50;0.10;;;4.40;26.50;;;;;;5054617;28;20493;-76
2024/01/29 07:10:22;;;;;;;0.60;0.50;;;;;;;;;;5056847;28;20503;-76
2024/01/29 07:12:50;;;;;;;0.50;0.10;;;4.40;25.40;;;;;;5056268;28;20485;-76
2024/01/29 07:15:19;;;;;;;0.87;0.87;;;4.40;25.10;;;;;;5054388;28;20591;-77
2024/01/29 07:17:48;;;;;;;0.50;0.10;;;4.40;24.80;;;;;;5055138;28;20985;-77
2024/01/29 07:20:16;;;;;;;0.50;0.10;;;4.40;25.30;;;;;;5052642;28;20786;-77
2024/01/29 07:22:46;;;;;;;0.50;0.10;;;4.50;25.70;;;;;;5051404;28;20501;-76
2024/01/29 07:25:13;;;;;;;0.50;0.10;;;4.40;25.50;;;;;;5050841;28;20944;-77
2024/01/29 07:27:42;;;;;;;0.50;0.10;;;4.40;25.00;;;;;;5050853;28;20557;-77
2024/01/29 07:30:11;;;;;;;0.60;0.43;;;4.30;25.00;;;;;;5050797;28;20450;-77
2024/01/29 07:32:39;;;;;;;0.50;0.10;;;4.30;25.70;;;;;;5057972;28;20441;-76
2024/01/29 07:35:09;;;;;;;0.50;0.10;;;4.30;26.70;;;;;;5051598;28;20533;-76
2024/01/29 07:37:38;;;;;;;0.50;0.10;;;4.30;26.90;;;;;;5057089;28;20564;-77
2024/01/29 07:40:09;;;;;;;0.50;0.10;;;4.30;26.60;;;;;;5056119;28;20537;-76
2024/01/29 07:42:37;;;;;;;0.50;0.10;;;4.30;27.30;;;;;;5056743;28;20438;-77
2024/01/29 07:45:05;;;;;;;0.50;0.10;;;4.40;28.30;;;;;;5056495;28;20442;-76
2024/01/29 07:47:33;;;;;;;0.57;0.37;;;4.40;28.90;;;;;;5057491;28;20469;-76
2024/01/29 07:50:02;;;;;;;0.50;0.10;;;4.40;29.10;;;;;;5057059;28;20553;-77
2024/01/29 07:52:31;;;;;;;0.50;0.10;;;4.40;29.80;;;;;;5048259;28;20774;-76
2024/01/29 07:54:59;;;;;;;0.50;0.10;;;4.50;40.00;;;;;;5055936;28;20531;-76
2024/01/29 07:57:27;;;;;;;0.50;0.10;;;4.50;30.30;;;;;;5055594;28;20476;-77
2024/01/29 07:59:57;;;;;;;0.50;0.10;;;4.60;30.80;;;;;;5055647;28;20438;-77
2024/01/29 08:02:25;;;;;;;0.50;0.10;;;4.60;40.90;;;;;;5054058;28;20513;-77
2024/01/29 08:04:53;;;;;;;0.50;0.10;;;4.60;40.40;;;;;;5055063;28;20452;-76
2024/01/29 08:07:21;;;;;;;0.50;0.10;;;4.70;30.80;;;;;;5054831;28;20882;-77
2024/01/29 08:09:50;;;;;;;0.50;0.10;;;4.70;40.40;;;;;;5054532;28;20450;-76
2024/01/29 08:12:19;;;;;;;0.50;0.10;;;4.80;30.90;;;;;;5053731;28;20460;-77
2024/01/29 08:14:48;;;;;;;0.50;0.10;;;4.80;41.70;;;;;;5048311;28;20488;-75
2024/01/29 08:17:16;;;;;;;0.50;0.10;;;4.80;31.30;;;;;;5054018;28;20664;-77
2024/01/29 08:19:44;;;;;;;0.50;0.10;;;4.90;31.90;;;;;;5053965;28;20469;-76
2024/01/29 08:22:11;;;;;;;0.50;0.10;;;5.00;32.60;;;;;;5053465;28;20450;-78
2024/01/29 08:24:39;;;;;;;0.50;0.30;;;5.00;43.00;;;;;;5052995;28;20851;-75
2024/01/29 08:27:08;;;;;;;1.03;0.93;;;5.10;33.60;;;;;;5053317;28;20813;-76
2024/01/29 08:29:36;;;;;;;0.50;0.10;;;5.10;34.50;;;;;;5053168;28;20501;-77
2024/01/29 08:32:05;;;;;;;0.50;0.10;;;5.20;46.30;;;;;;5052134;28;20496;-77
2024/01/29 08:34:33;;;;;;;0.50;0.10;;;5.20;46.70;;;;;;5052854;28;20572;-77
2024/01/29 08:37:01;;;;;;;0.50;0.10;;;5.30;36.80;;;;;;5053041;28;20924;-75
2024/01/29 08:39:30;;;;;;;0.50;0.10;;;5.40;36.80;;;;;;5045389;28;20446;-76
2024/01/29 08:41:57;;;;;;;0.50;0.10;;;5.40;37.50;;;;;;5053015;28;20445;-76
2024/01/29 08:44:27;;;;;;;0.50;0.10;;;5.50;48.50;;;;;;5053151;28;20450;-76
2024/01/29 08:46:55;;;;;;;0.50;0.10;;;5.60;40.10;;;;;;5046445;28;21044;-77
2024/01/29 08:49:23;;;;;;;0.50;0.10;;;5.60;42.40;;;;;;5051914;28;20493;-76
2024/01/29 08:51:51;;;;;;;0.50;0.10;;;5.80;40.30;;;;;;5052115;28;20438;-75
2024/01/29 08:54:19;;;;;;;0.50;0.10;;;5.80;37.60;;;;;;5051499;28;20854;-77
2024/01/29 08:56:49;;;;;;;0.50;0.10;;;5.80;36.80;;;;;;5052715;28;20482;-77
2024/01/29 08:59:19;;;;;;;0.53;0.27;;;6.00;36.40;;;;;;5052774;28;20466;-74
2024/01/29 09:01:48;;;;;;;0.50;0.10;;;6.00;35.70;;;;;;5052995;28;20532;-76
2024/01/29 09:04:16;;;;;;;0.50;0.10;;;6.00;46.10;;;;;;5055168;28;20526;-76
2024/01/29 09:06:44;;;;;;;0.93;0.93;;;6.20;34.40;;;;;;5054508;28;20464;-76
2024/01/29 09:09:13;;;;;;;0.50;0.10;;;6.20;34.50;;;;;;5053342;28;20451;-77
2024/01/29 09:11:40;;;;;;;0.50;0.10;;;6.30;43.80;;;;;;5051565;28;20469;-77
2024/01/29 09:14:10;;;;;;;0.50;0.10;;;6.40;42.90;;;;;;5048553;28;20958;-77
2024/01/29 09:16:39;;;;;;;0.50;0.10;;;6.50;31.60;;;;;;5051762;28;20960;-77
2024/01/29 09:19:08;;;;;;;0.60;0.50;;;6.50;42.30;;;;;;5052393;28;20481;-76
2024/01/29 09:21:36;;;;;;;0.50;0.10;;;6.60;41.60;;;;;;5052530;28;20915;-75
2024/01/29 09:24:05;;;;;;;0.50;0.10;;;6.60;42.70;;;;;;5052081;28;20446;-76
2024/01/29 09:26:33;;;;;;;0.50;0.10;;;6.80;31.90;;;;;;5044220;28;20501;-76
2024/01/29 09:29:01;;;;;;;0.50;0.10;;;6.80;32.70;;;;;;5050773;28;21030;-76
2024/01/29 09:31:29;;;;;;;0.50;0.10;;;6.90;32.70;;;;;;5052304;28;20615;-76
2024/01/29 09:33:57;;;;;;;0.60;0.10;;;6.90;43.10;;;;;;5052621;28;20451;-75
2024/01/29 09:36:26;;;;;;;0.50;0.10;;;7.00;32.70;;;;;;5052631;28;21014;-76
2024/01/29 09:38:57;;;;;;;0.50;0.10;;;7.00;43.10;;;;;;5052801;28;20560;-75
2024/01/29 09:41:25;;;;;;;0.50;0.10;;;7.10;41.30;;;;;;5052476;28;20909;-77
2024/01/29 09:43:57;;;;;;;0.50;0.20;;;7.10;40.90;;;;;;5052623;28;20477;-77
2024/01/29 09:46:26;;;;;;;0.50;0.10;;;7.10;30.00;;;;;;5051124;28;20482;-76
2024/01/29 09:48:54;;;;;;;0.50;0.20;;;7.10;40.70;;;;;;5053228;28;20447;-75
2024/01/29 09:51:24;;;;;;;0.50;0.10;;;7.20;39.30;;;;;;5052171;28;20881;-76
2024/01/29 09:53:55;;;;;;;0.50;0.10;;;7.10;36.70;;;;;;5051640;28;20492;-76
2024/01/29 09:56:23;;;;;;;0.50;0.10;;;7.20;27.50;;;;;;5051357;28;20893;-76
2024/01/29 09:58:51;;;;;;;0.50;0.10;;;7.10;37.40;;;;;;5052069;28;20542;-76
2024/01/29 10:01:20;;;;;;;0.50;0.10;;;7.20;36.40;;;;;;5051319;28;20864;-76
2024/01/29 10:03:48;;;;;;;0.50;0.10;;;7.20;36.40;;;;;;5050057;28;20467;-75
2024/01/29 10:06:16;;;;;;;0.50;0.10;;;7.20;27.80;;;;;;5054406;28;20472;-77
2024/01/29 10:08:46;;;;;;;0.50;0.10;;;7.20;27.90;;;;;;5054791;28;20477;-77
2024/01/29 10:11:19;;;;;;;0.50;0.10;;;7.20;28.80;;;;;;5054690;28;20478;-75
2024/01/29 10:13:48;;;;;;;0.50;0.10;;;7.10;38.70;;;;;;5058777;28;20474;-75
2024/01/29 10:16:16;;;;;;;0.50;0.10;;;7.20;27.90;;;;;;5060871;28;20490;-75
2024/01/29 10:18:44;;;;;;;0.50;0.10;;;7.20;28.70;;;;;;5061141;28;20458;-76
2024/01/29 10:21:12;;;;;;;0.50;0.10;;;7.30;29.30;;;;;;5052093;28;20470;-76
2024/01/29 10:23:40;;;;;;;2.00;1.33;;;7.30;39.90;;;;;;5051747;28;20527;-75
2024/01/29 10:26:17;;;;;;;0.50;0.10;;;7.30;27.90;;;;;;5053148;28;20492;-75
2024/01/29 10:28:44;;;;;;;0.50;0.10;;;7.20;37.20;;;;;;5045815;28;20485;-76
2024/01/29 10:31:12;;;;;;;0.60;0.30;;;7.20;37.70;;;;;;5050051;28;20464;-76
2024/01/29 10:33:40;;;;;;;0.50;0.10;;;7.30;39.40;;;;;;5050826;28;20448;-77
2024/01/29 10:36:12;;;;;;;0.50;0.10;;;7.30;29.50;;;;;;5051254;28;20493;-77
2024/01/29 10:38:44;;;;;;;0.50;0.10;;;7.30;39.80;;;;;;5050880;28;21032;-77
2024/01/29 10:41:16;;;;;;;0.50;0.10;;;7.40;29.90;;;;;;5050772;28;20602;-77
2024/01/29 10:43:48;;;;;;;0.50;0.10;;;7.40;41.20;;;;;;5051523;28;20529;-76
2024/01/29 10:46:19;;;;;;;0.50;0.10;;;7.50;30.40;;;;;;5051165;28;20459;-76
2024/01/29 10:48:48;;;;;;;0.50;0.10;;;7.50;41.30;;;;;;5049339;28;20973;-77
2024/01/29 10:51:17;;;;;;;0.93;0.70;;;7.60;42.10;;;;;;5051284;28;20450;-76
2024/01/29 10:53:49;;;;;;;0.50;0.10;;;7.70;29.90;;;;;;5052442;28;20779;-78
2024/01/29 10:56:18;;;;;;;0.50;0.10;;;7.70;30.00;;;;;;5051942;28;20561;-76
2024/01/29 10:58:48;;;;;;;0.50;0.10;;;7.80;30.70;;;;;;5051145;28;20526;-76
2024/01/29 11:01:16;;;;;;;1.73;1.60;;;8.00;30.00;;;;;;5050340;28;20543;-77
2024/01/29 11:03:46;;;;;;;0.77;0.73;;;7.90;40.50;;;;;;5051006;28;20437;-77
2024/01/29 11:06:21;;;;;;;0.50;0.10;;;8.10;29.40;;;;;;5051642;28;20990;-77
2024/01/29 11:08:54;;;;;;;0.50;0.10;;;8.20;28.60;;;;;;5054875;28;20448;-78
2024/01/29 11:11:25;;;;;;;1.30;0.97;;;8.20;38.80;;;;;;5054433;28;20457;-76
2024/01/29 11:13:54;;;;;;;1.27;0.63;;;8.20;37.30;;;;;;5057956;28;20483;-76
2024/01/29 11:16:23;;;;;;;0.50;0.10;;;8.30;28.40;;;;;;5057075;28;20564;-77
2024/01/29 11:18:51;;;;;;;0.50;0.10;;;8.30;39.50;;;;;;5055672;28;20457;-76
2024/01/29 11:21:24;;;;;;;0.50;0.10;;;8.40;27.90;;;;;;5055187;28;20481;-76
2024/01/29 11:23:56;;;;;;;1.47;1.37;;;8.40;27.40;;;;;;5055142;28;20910;-76
2024/01/29 11:26:28;;;;;;;2.10;1.70;;;8.40;27.50;;;;;;5055343;28;20499;-77
2024/01/29 11:28:58;;;;;;;0.70;0.27;;;8.30;28.00;;;;;;5055029;28;20546;-76
2024/01/29 11:31:38;;;;;;;0.50;0.10;;;8.40;28.10;;;;;;5055323;28;20458;-76
2024/01/29 11:34:07;;;;;;;0.50;0.10;;;8.40;29.10;;;;;;5053550;28;20522;-76
2024/01/29 11:36:37;;;;;;;0.83;0.40;;;8.50;29.10;;;;;;5055253;28;20490;-75
2024/01/29 11:39:07;;;;;;;0.50;0.10;;;8.60;29.30;;;;;;5054566;28;20457;-77
2024/01/29 11:41:36;;;;;;;2.30;2.20;;;8.60;39.70;;;;;;5054238;28;20554;-75
2024/01/29 11:44:05;;;;;;;1.37;0.57;;;8.70;40.00;;;;;;5054685;28;20443;-76
2024/01/29 11:46:33;;;;;;;0.60;0.30;;;8.80;28.90;;;;;;5054494;28;20467;-76
2024/01/29 11:49:01;;;;;;;0.50;0.20;;;8.70;27.80;;;;;;5053651;28;20474;-76
2024/01/29 11:51:31;;;;;;;0.50;0.10;;;8.70;28.90;;;;;;5054319;28;20455;-75
2024/01/29 11:53:59;;;;;;;0.50;0.10;;;8.70;29.20;;;;;;5054879;28;20443;-76
2024/01/29 11:56:27;;;;;;;0.63;0.63;;;8.90;29.60;;;;;;5054306;28;20492;-77
2024/01/29 11:59:01;;;;;;;0.50;0.10;;;8.90;39.70;;;;;;5054154;28;20536;-76
2024/01/29 12:01:31;;;;;;;0.63;0.63;;;9.00;29.70;;;;;;5054630;28;20454;-77
2024/01/29 12:04:00;;;;;;;0.50;0.10;;;9.10;30.70;;;;;;5054275;28;21036;-76
2024/01/29 12:06:31;;;;;;;0.50;0.10;;;9.10;31.30;;;;;;5047416;28;21005;-76
2024/01/29 12:08:59;;;;;;;0.50;0.10;;;9.10;40.80;;;;;;5053719;28;20544;-75
2024/01/29 12:11:27;;;;;;;0.50;0.30;;;9.30;32.00;;;;;;5053607;28;20442;-77
2024/01/29 12:13:57;;;;;;;1.60;1.50;;;9.30;31.80;;;;;;5053917;28;20458;-77
2024/01/29 12:16:25;;;;;;;0.50;0.20;;;9.30;32.20;;;;;;5052994;28;20965;-76
2024/01/29 12:18:56;;;;;;;0.50;0.10;;;9.30;46.00;;;;;;5046733;28;20840;-77
2024/01/29 12:21:26;;;;;;;0.50;0.10;;;9.50;32.30;;;;;;5053532;28;20485;-76
2024/01/29 12:23:56;;;;;;;0.50;0.10;;;9.20;31.50;;;;;;5053653;28;20879;-75
2024/01/29 12:26:28;;;;;;;0.50;0.20;;;9.50;30.30;;;;;;5053136;28;20527;-77
2024/01/29 12:28:59;;;;;;;0.77;0.63;;;9.60;30.80;;;;;;5054424;28;20821;-77
2024/01/29 12:31:30;;;;;;;0.50;0.10;;;9.60;41.40;;;;;;5053867;28;20456;-77
2024/01/29 12:33:59;;;;;;;0.50;0.10;;;9.70;41.40;;;;;;5047470;28;20495;-77
2024/01/29 12:36:27;;;;;;;0.50;0.10;;;9.80;31.00;;;;;;5053298;28;20541;-79
2024/01/29 12:38:58;;;;;;;0.50;0.10;;;9.80;31.60;;;;;;5053120;28;20531;-76
2024/01/29 12:41:33;;;;;;;0.50;0.10;;;9.90;41.80;;;;;;5053529;28;20452;-77
2024/01/29 12:44:10;;;;;;;0.50;0.10;;;10.00;30.20;;;;;;5053524;28;21026;-77
2024/01/29 12:46:38;;;;;;;0.50;0.20;;;10.00;29.60;;;;;;5053024;28;20472;-77
2024/01/29 12:49:07;;;;;;;0.50;0.10;;;10.10;39.30;;;;;;5051094;28;20456;-75
2024/01/29 12:51:36;;;;;;;0.50;0.10;;;10.20;29.20;;;;;;5053849;28;20503;-77
2024/01/29 12:54:04;;;;;;;0.50;0.10;;;10.10;40.00;;;;;;5053434;28;20483;-78
2024/01/29 12:56:33;;;;;;;0.50;0.10;;;10.20;29.10;;;;;;5053088;28;20540;-77
2024/01/29 12:59:06;;;;;;;0.50;0.10;;;10.20;38.80;;;;;;5053339;28;20556;-77
2024/01/29 13:01:34;;;;;;;0.50;0.10;;;10.30;29.30;;;;;;5053973;28;20535;-77
2024/01/29 13:04:02;;;;;;;0.50;0.30;;;10.30;39.90;;;;;;5053515;28;20785;-77
2024/01/29 13:06:31;;;;;;;0.50;0.10;;;10.40;28.90;;;;;;5052056;28;20482;-75
2024/01/29 13:09:00;;;;;;;0.50;0.10;;;10.30;39.10;;;;;;5053186;28;20574;-75
2024/01/29 13:11:28;;;;;;;0.50;0.10;;;10.40;28.70;;;;;;5053240;28;20454;-77